Archiv-/Tagesdaten

--Timestamp---	Temp	Chill	HIndex	Humid	Dewpt	 Wind 	HiWind	WindDir	Rain 	Barom	Solar	 ET  	 UV 
--------------	----	-----	------	-----	-----	------	------	-------	-----	-----	-----	-----	----
20100120 00:00	-1.2	-1.2	-1.2	91	-2.4	0	0	-100000	0.0	1019.2	0	0.000	0.0
20100120 00:05	-1.3	-1.3	-1.3	92	-2.4	0	2	112	0.0	1019.2	0	0.000	0.0
20100120 00:10	-1.3	-1.3	-1.3	92	-2.5	0	0	-100000	0.0	1019.1	0	0.000	0.0
20100120 00:15	-1.4	-1.4	-1.4	92	-2.5	0	0	-100000	0.0	1019.1	0	0.000	0.0
20100120 00:20	-1.4	-1.4	-1.4	92	-2.6	0	0	-100000	0.0	1019.1	0	0.000	0.0
20100120 00:25	-1.5	-1.5	-1.5	92	-2.6	0	0	-100000	0.0	1019.0	0	0.000	0.0
20100120 00:30	-1.5	-1.5	-1.5	92	-2.6	0	0	-100000	0.0	1019.0	0	0.000	0.0
20100120 00:35	-1.4	-1.4	-1.4	92	-2.6	0	0	-100000	0.0	1019.0	0	0.000	0.0
20100120 00:40	-1.4	-1.4	-1.4	92	-2.6	2	5	112	0.0	1018.9	0	0.000	0.0
20100120 00:45	-1.5	-1.5	-1.5	92	-2.6	3	5	112	0.0	1018.9	0	0.000	0.0
20100120 00:50	-1.6	-1.6	-1.6	92	-2.7	0	5	112	0.0	1018.8	0	0.000	0.0
20100120 00:55	-1.6	-1.6	-1.6	92	-2.7	0	3	112	0.0	1018.8	0	0.000	0.0
20100120 01:00	-1.6	-1.6	-1.6	93	-2.5	0	0	-100000	0.0	1018.7	0	0.000	0.0
20100120 01:05	-1.5	-1.5	-1.5	93	-2.5	0	0	-100000	0.0	1018.6	0	0.000	0.0
20100120 01:10	-1.4	-1.4	-1.4	93	-2.4	0	0	-100000	0.0	1018.6	0	0.000	0.0
20100120 01:15	-1.4	-1.4	-1.4	93	-2.4	3	5	112	0.0	1018.4	0	0.000	0.0
20100120 01:20	-1.4	-1.4	-1.4	93	-2.4	2	5	112	0.0	1018.3	0	0.000	0.0
20100120 01:25	-1.4	-1.4	-1.4	93	-2.4	2	3	112	0.0	1018.3	0	0.000	0.0
20100120 01:30	-1.4	-1.4	-1.4	93	-2.4	0	3	112	0.0	1018.3	0	0.000	0.0
20100120 01:35	-1.4	-1.4	-1.4	93	-2.4	0	3	112	0.0	1018.2	0	0.000	0.0
20100120 01:40	-1.4	-1.4	-1.4	93	-2.4	0	0	-100000	0.0	1018.3	0	0.000	0.0
20100120 01:45	-1.4	-1.4	-1.4	93	-2.4	2	5	112	0.0	1018.4	0	0.000	0.0
20100120 01:50	-1.4	-1.4	-1.4	93	-2.4	3	6	112	0.0	1018.4	0	0.000	0.0
20100120 01:55	-1.5	-1.5	-1.5	93	-2.5	2	5	112	0.0	1018.4	0	0.000	0.0
20100120 02:00	-1.5	-1.5	-1.5	93	-2.5	2	5	112	0.0	1018.4	0	0.000	0.0
20100120 02:05	-1.5	-1.5	-1.5	93	-2.5	2	5	112	0.0	1018.5	0	0.000	0.0
20100120 02:10	-1.6	-1.6	-1.6	93	-2.5	2	5	112	0.0	1018.5	0	0.000	0.0
20100120 02:15	-1.6	-1.6	-1.6	93	-2.6	5	6	112	0.0	1018.4	0	0.000	0.0
20100120 02:20	-1.7	-1.7	-1.7	93	-2.6	3	6	112	0.0	1018.4	0	0.000	0.0
20100120 02:25	-1.7	-1.7	-1.7	93	-2.6	3	6	112	0.0	1018.4	0	0.000	0.0
20100120 02:30	-1.7	-1.7	-1.7	93	-2.7	2	5	112	0.0	1018.3	0	0.000	0.0
20100120 02:35	-1.7	-1.7	-1.7	93	-2.7	2	5	112	0.0	1018.3	0	0.000	0.0
20100120 02:40	-1.7	-1.7	-1.7	93	-2.7	2	5	112	0.0	1018.2	0	0.000	0.0
20100120 02:45	-1.7	-1.7	-1.7	93	-2.6	0	3	112	0.0	1018.1	0	0.000	0.0
20100120 02:50	-1.6	-1.6	-1.6	93	-2.6	0	3	112	0.0	1018.2	0	0.000	0.0
20100120 02:55	-1.6	-1.6	-1.6	93	-2.5	0	3	112	0.0	1018.2	0	0.000	0.0
20100120 03:00	-1.6	-1.6	-1.6	93	-2.6	0	2	112	0.0	1018.2	0	0.000	0.0
20100120 03:05	-1.6	-1.6	-1.6	93	-2.6	2	5	112	0.0	1018.3	0	0.000	0.0
20100120 03:10	-1.6	-1.6	-1.6	93	-2.6	2	5	112	0.0	1018.2	0	0.000	0.0
20100120 03:15	-1.6	-1.6	-1.6	93	-2.6	2	5	112	0.0	1018.1	0	0.000	0.0
20100120 03:20	-1.6	-1.6	-1.6	93	-2.5	0	2	112	0.0	1018.1	0	0.000	0.0
20100120 03:25	-1.6	-1.6	-1.6	93	-2.5	2	5	112	0.0	1018.1	0	0.000	0.0
20100120 03:30	-1.6	-1.6	-1.6	93	-2.6	0	3	112	0.0	1018.1	0	0.000	0.0
20100120 03:35	-1.6	-1.6	-1.6	93	-2.6	0	3	112	0.0	1018.1	0	0.000	0.0
20100120 03:40	-1.7	-1.7	-1.7	93	-2.6	0	0	-100000	0.0	1018.1	0	0.000	0.0
20100120 03:45	-1.6	-1.6	-1.6	93	-2.6	0	0	-100000	0.0	1018.1	0	0.000	0.0
20100120 03:50	-1.6	-1.6	-1.6	93	-2.5	0	0	-100000	0.0	1018.1	0	0.000	0.0
20100120 03:55	-1.6	-1.6	-1.6	93	-2.5	0	2	112	0.0	1017.9	0	0.000	0.0
20100120 04:00	-1.6	-1.6	-1.6	93	-2.5	0	3	112	0.0	1017.8	0	0.000	0.0
20100120 04:05	-1.6	-1.6	-1.6	93	-2.5	2	3	112	0.0	1018.0	0	0.000	0.0
20100120 04:10	-1.6	-1.6	-1.6	93	-2.5	0	0	-100000	0.0	1018.0	0	0.000	0.0
20100120 04:15	-1.6	-1.6	-1.6	93	-2.5	2	5	112	0.0	1018.0	0	0.000	0.0
20100120 04:20	-1.6	-1.6	-1.6	93	-2.5	2	5	112	0.0	1017.9	0	0.000	0.0
20100120 04:25	-1.6	-1.6	-1.6	93	-2.5	0	3	112	0.0	1018.0	0	0.000	0.0
20100120 04:30	-1.6	-1.6	-1.6	93	-2.5	0	5	112	0.0	1017.9	0	0.000	0.0
20100120 04:35	-1.6	-1.6	-1.6	93	-2.5	2	5	112	0.0	1018.0	0	0.000	0.0
20100120 04:40	-1.6	-1.6	-1.6	93	-2.5	0	3	112	0.0	1018.0	0	0.000	0.0
20100120 04:45	-1.6	-1.6	-1.6	93	-2.6	2	5	112	0.0	1018.0	0	0.000	0.0
20100120 04:50	-1.7	-1.7	-1.7	93	-2.6	2	5	112	0.0	1017.7	0	0.000	0.0
20100120 04:55	-1.7	-1.7	-1.7	93	-2.6	2	5	112	0.0	1017.8	0	0.000	0.0
20100120 05:00	-1.7	-1.7	-1.7	93	-2.7	2	5	112	0.0	1017.7	0	0.000	0.0
20100120 05:05	-1.8	-1.8	-1.8	93	-2.8	3	6	112	0.0	1017.6	0	0.000	0.0
20100120 05:10	-1.8	-1.8	-1.8	93	-2.8	2	5	112	0.0	1017.6	0	0.000	0.0
20100120 05:15	-1.7	-1.7	-1.7	93	-2.7	3	6	112	0.0	1017.6	0	0.000	0.0
20100120 05:20	-1.7	-1.7	-1.7	93	-2.7	0	3	112	0.0	1017.6	0	0.000	0.0
20100120 05:25	-1.7	-1.7	-1.7	93	-2.7	2	5	112	0.0	1017.5	0	0.000	0.0
20100120 05:30	-1.7	-1.7	-1.7	93	-2.7	3	6	112	0.0	1017.5	0	0.000	0.0
20100120 05:35	-1.7	-1.7	-1.7	93	-2.6	2	3	112	0.0	1017.5	0	0.000	0.0
20100120 05:40	-1.7	-1.7	-1.7	93	-2.6	0	3	112	0.0	1017.4	0	0.000	0.0
20100120 05:45	-1.7	-1.7	-1.7	93	-2.6	0	0	-100000	0.0	1017.4	0	0.000	0.0
20100120 05:50	-1.6	-1.6	-1.6	93	-2.6	0	3	112	0.0	1017.4	0	0.000	0.0
20100120 05:55	-1.6	-1.6	-1.6	93	-2.5	0	3	112	0.0	1017.4	0	0.000	0.0
20100120 06:00	-1.5	-1.5	-1.5	93	-2.5	0	5	112	0.0	1017.4	0	0.000	0.0
20100120 06:05	-1.5	-1.5	-1.5	93	-2.5	2	5	112	0.0	1017.6	0	0.000	0.0
20100120 06:10	-1.4	-1.4	-1.4	93	-2.4	2	5	112	0.0	1017.6	0	0.000	0.0
20100120 06:15	-1.4	-1.4	-1.4	93	-2.4	3	5	112	0.0	1017.5	0	0.000	0.0
20100120 06:20	-1.4	-1.4	-1.4	93	-2.4	3	6	112	0.0	1017.4	0	0.000	0.0
20100120 06:25	-1.4	-1.4	-1.4	93	-2.4	5	6	112	0.0	1017.4	0	0.000	0.0
20100120 06:30	-1.3	-1.3	-1.3	93	-2.3	5	10	112	0.0	1017.4	0	0.000	0.0
20100120 06:35	-1.4	-1.4	-1.4	93	-2.4	5	10	112	0.0	1017.4	0	0.000	0.0
20100120 06:40	-1.4	-1.4	-1.4	93	-2.4	3	8	112	0.0	1017.4	0	0.000	0.0
20100120 06:45	-1.4	-1.4	-1.4	93	-2.4	3	5	112	0.0	1017.3	0	0.000	0.0
20100120 06:50	-1.3	-1.3	-1.3	93	-2.3	3	6	112	0.0	1017.2	0	0.000	0.0
20100120 06:55	-1.3	-1.3	-1.3	93	-2.3	3	6	112	0.0	1017.2	0	0.000	0.0
20100120 07:00	-1.3	-3.7	-1.3	93	-2.3	6	14	112	0.0	1017.2	0	0.000	0.0
20100120 07:05	-1.3	-1.3	-1.3	93	-2.3	5	8	135	0.0	1017.2	0	0.000	0.0
20100120 07:10	-1.3	-3.7	-1.3	93	-2.3	6	11	112	0.0	1017.3	0	0.000	0.0
20100120 07:15	-1.3	-1.3	-1.3	93	-2.3	5	10	112	0.0	1017.3	0	0.000	0.0
20100120 07:20	-1.2	-1.2	-1.2	93	-2.2	2	6	112	0.0	1017.3	0	0.000	0.0
20100120 07:25	-1.2	-1.2	-1.2	93	-2.2	3	6	112	0.0	1017.3	0	0.000	0.0
20100120 07:30	-1.2	-1.2	-1.2	93	-2.2	3	8	112	0.0	1017.4	0	0.000	0.0
20100120 07:35	-1.1	-1.1	-1.1	92	-2.2	5	10	112	0.0	1017.4	0	0.000	0.0
20100120 07:40	-1.1	-1.1	-1.1	92	-2.2	5	11	112	0.0	1017.4	0	0.000	0.0
20100120 07:45	-1.1	-1.1	-1.1	92	-2.2	3	6	112	0.0	1017.4	0	0.000	0.0
20100120 07:50	-1.1	-1.1	-1.1	92	-2.2	3	6	112	0.0	1017.4	0	0.000	0.0
20100120 07:55	-1.1	-1.1	-1.1	92	-2.2	3	11	112	0.0	1017.3	0	0.000	0.0
20100120 08:00	-1.1	-1.1	-1.1	92	-2.2	3	10	112	0.0	1017.3	0	0.000	0.0
20100120 08:05	-1.1	-1.1	-1.1	92	-2.2	3	6	112	0.0	1017.3	0	0.000	0.0
20100120 08:10	-1.1	-1.1	-1.1	92	-2.2	3	6	112	0.0	1017.2	0	0.000	0.0
20100120 08:15	-1.1	-1.1	-1.1	92	-2.2	3	8	90	0.0	1017.3	0	0.000	0.0
20100120 08:20	-1.1	-1.1	-1.1	92	-2.2	3	6	90	0.0	1017.3	4	0.000	0.0
20100120 08:25	-1.1	-1.1	-1.1	92	-2.2	3	6	90	0.0	1017.2	5	0.000	0.0
20100120 08:30	-1.1	-1.1	-1.1	92	-2.2	3	8	90	0.0	1017.2	7	0.000	0.0
20100120 08:35	-1.0	-1.0	-1.0	92	-2.1	3	8	90	0.0	1017.3	9	0.000	0.0
20100120 08:40	-1.1	-1.1	-1.1	92	-2.2	3	6	90	0.0	1017.2	10	0.000	0.0
20100120 08:45	-1.1	-1.1	-1.1	91	-2.3	3	8	90	0.0	1017.2	11	0.000	0.0
20100120 08:50	-1.1	-1.1	-1.1	91	-2.3	2	6	90	0.0	1017.2	13	0.000	0.0
20100120 08:55	-1.1	-1.1	-1.1	91	-2.3	5	8	90	0.0	1017.1	15	0.000	0.0
20100120 09:00	-1.1	-1.1	-1.1	92	-2.2	3	5	112	0.0	1017.1	18	0.000	0.0
20100120 09:05	-1.1	-1.1	-1.1	92	-2.2	3	6	112	0.0	1017.2	18	0.000	0.0
20100120 09:10	-1.1	-1.1	-1.1	92	-2.2	3	6	112	0.0	1017.2	23	0.000	0.0
20100120 09:15	-1.1	-1.1	-1.1	92	-2.2	3	6	90	0.0	1017.2	23	0.000	0.0
20100120 09:20	-1.1	-1.1	-1.1	92	-2.2	2	6	90	0.0	1017.2	23	0.000	0.0
20100120 09:25	-1.1	-1.1	-1.1	92	-2.2	3	8	90	0.0	1017.2	26	0.000	0.0
20100120 09:30	-1.1	-1.1	-1.1	91	-2.4	3	8	90	0.0	1017.2	27	0.000	0.0
20100120 09:35	-1.1	-1.1	-1.1	92	-2.2	3	8	90	0.0	1017.2	29	0.000	0.0
20100120 09:40	-1.1	-1.1	-1.1	92	-2.2	3	8	90	0.0	1017.1	30	0.000	0.0
20100120 09:45	-1.1	-1.1	-1.1	91	-2.3	3	6	90	0.0	1017.1	34	0.000	0.0
20100120 09:50	-1.1	-1.1	-1.1	91	-2.3	3	8	90	0.0	1017.1	37	0.000	0.0
20100120 09:55	-1.1	-1.1	-1.1	91	-2.3	3	10	90	0.0	1017.1	39	0.000	0.0
20100120 10:00	-1.1	-1.1	-1.1	91	-2.3	5	11	90	0.0	1017.1	42	0.000	0.0
20100120 10:05	-1.0	-1.0	-1.0	91	-2.3	5	10	112	0.0	1017.1	43	0.000	0.0
20100120 10:10	-1.0	-1.0	-1.0	91	-2.3	5	11	90	0.0	1017.1	41	0.000	0.0
20100120 10:15	-1.0	-1.0	-1.0	91	-2.3	5	10	90	0.0	1017.1	43	0.000	0.0
20100120 10:20	-1.0	-1.0	-1.0	91	-2.3	3	10	112	0.0	1017.1	44	0.000	0.0
20100120 10:25	-1.0	-1.0	-1.0	91	-2.3	5	8	112	0.0	1017.1	47	0.000	0.0
20100120 10:30	-0.9	-0.9	-0.9	91	-2.2	5	10	90	0.0	1017.1	46	0.000	0.0
20100120 10:35	-0.9	-0.9	-0.9	91	-2.2	3	8	112	0.0	1017.1	46	0.000	0.0
20100120 10:40	-0.9	-0.9	-0.9	90	-2.4	3	8	112	0.0	1017.0	49	0.000	0.0
20100120 10:45	-0.9	-0.9	-0.9	90	-2.4	3	6	90	0.0	1016.9	51	0.000	0.0
20100120 10:50	-0.9	-0.9	-0.9	90	-2.3	5	10	135	0.0	1016.9	52	0.000	0.0
20100120 10:55	-0.9	-0.9	-0.9	90	-2.3	5	11	135	0.0	1016.8	53	0.000	0.0
20100120 11:00	-0.9	-0.9	-0.9	90	-2.3	5	8	112	0.0	1016.7	49	0.025	0.0
20100120 11:05	-0.8	-0.8	-0.8	90	-2.3	5	8	90	0.0	1016.7	48	0.000	0.0
20100120 11:10	-0.8	-0.8	-0.8	90	-2.3	5	8	112	0.0	1016.7	47	0.000	0.0
20100120 11:15	-0.8	-0.8	-0.8	90	-2.3	5	10	112	0.0	1016.6	48	0.000	0.0
20100120 11:20	-0.9	-3.2	-0.9	90	-2.3	6	10	112	0.0	1016.5	50	0.000	0.0
20100120 11:25	-0.8	-0.8	-0.8	90	-2.3	5	10	112	0.0	1016.4	50	0.000	0.0
20100120 11:30	-0.8	-0.8	-0.8	90	-2.3	3	10	112	0.0	1016.4	51	0.000	0.0
20100120 11:35	-0.8	-0.8	-0.8	90	-2.2	5	8	158	0.0	1016.4	52	0.000	0.0
20100120 11:40	-0.8	-0.8	-0.8	90	-2.2	3	6	158	0.0	1016.4	52	0.000	0.0
20100120 11:45	-0.7	-0.7	-0.7	90	-2.2	3	8	158	0.0	1016.3	59	0.000	0.0
20100120 11:50	-0.7	-0.7	-0.7	90	-2.2	5	13	158	0.0	1016.2	68	0.000	0.0
20100120 11:55	-0.7	-0.7	-0.7	90	-2.1	5	8	112	0.0	1016.1	61	0.000	0.0
20100120 12:00	-0.7	-0.7	-0.7	90	-2.1	3	8	112	0.0	1016.1	67	0.025	0.0
20100120 12:05	-0.6	-0.6	-0.6	90	-2.0	3	8	112	0.0	1015.9	70	0.000	0.0
20100120 12:10	-0.6	-0.6	-0.6	89	-2.2	5	8	112	0.0	1015.9	72	0.000	0.0
20100120 12:15	-0.6	-0.6	-0.6	89	-2.2	5	8	112	0.0	1015.9	70	0.000	0.0
20100120 12:20	-0.6	-0.6	-0.6	89	-2.2	3	8	112	0.0	1015.8	66	0.000	0.0
20100120 12:25	-0.6	-0.6	-0.6	89	-2.1	5	11	112	0.0	1015.6	66	0.000	0.0
20100120 12:30	-0.6	-0.6	-0.6	89	-2.2	5	10	112	0.0	1015.5	63	0.000	0.0
20100120 12:35	-0.6	-0.6	-0.6	89	-2.2	3	10	90	0.0	1015.5	81	0.000	0.0
20100120 12:40	-0.7	-0.7	-0.7	90	-2.1	3	8	90	0.0	1015.4	75	0.000	0.0
20100120 12:45	-0.7	-0.7	-0.7	90	-2.1	5	10	112	0.0	1015.3	81	0.000	0.0
20100120 12:50	-0.7	-0.7	-0.7	90	-2.1	5	10	112	0.0	1015.2	87	0.000	0.0
20100120 12:55	-0.6	-0.6	-0.6	90	-2.0	5	10	112	0.0	1015.2	76	0.000	0.0
20100120 13:00	-0.6	-0.6	-0.6	90	-2.0	5	10	90	0.0	1015.2	76	0.025	0.0
20100120 13:05	-0.7	-0.7	-0.7	90	-2.1	5	11	90	0.0	1015.0	76	0.000	0.0
20100120 13:10	-0.7	-0.7	-0.7	90	-2.1	5	10	112	0.0	1014.9	74	0.000	0.0
20100120 13:15	-0.7	-0.7	-0.7	90	-2.1	3	6	90	0.0	1014.9	65	0.000	0.0
20100120 13:20	-0.7	-0.7	-0.7	89	-2.3	5	11	135	0.0	1014.9	63	0.000	0.0
20100120 13:25	-0.7	-0.7	-0.7	90	-2.1	5	10	112	0.0	1014.9	80	0.000	0.0
20100120 13:30	-0.7	-0.7	-0.7	89	-2.3	5	11	90	0.0	1014.8	69	0.000	0.0
20100120 13:35	-0.7	-0.7	-0.7	89	-2.3	5	11	90	0.0	1014.9	71	0.000	0.0
20100120 13:40	-0.7	-0.7	-0.7	89	-2.3	3	8	112	0.0	1014.9	75	0.000	0.0
20100120 13:45	-0.8	-0.8	-0.8	89	-2.4	5	10	90	0.0	1014.8	70	0.000	0.0
20100120 13:50	-0.8	-0.8	-0.8	89	-2.4	5	8	90	0.0	1014.8	77	0.000	0.0
20100120 13:55	-0.7	-3.0	-0.7	89	-2.3	6	10	112	0.0	1014.8	88	0.000	0.0
20100120 14:00	-0.7	-2.9	-0.7	89	-2.3	6	10	112	0.0	1014.8	81	0.025	0.0
20100120 14:05	-0.7	-2.9	-0.7	88	-2.4	6	14	135	0.0	1014.7	81	0.000	0.0
20100120 14:10	-0.7	-2.9	-0.7	88	-2.4	6	10	112	0.0	1014.7	89	0.000	0.0
20100120 14:15	-0.7	-0.7	-0.7	88	-2.4	5	10	112	0.0	1014.7	72	0.000	0.0
20100120 14:20	-0.7	-0.7	-0.7	88	-2.4	3	6	112	0.0	1014.8	62	0.000	0.0
20100120 14:25	-0.7	-0.7	-0.7	88	-2.4	3	10	112	0.0	1014.8	60	0.000	0.0
20100120 14:30	-0.7	-0.7	-0.7	88	-2.4	3	8	90	0.0	1014.7	65	0.000	0.0
20100120 14:35	-0.7	-0.7	-0.7	88	-2.5	3	8	90	0.0	1014.8	70	0.000	0.0
20100120 14:40	-0.7	-0.7	-0.7	88	-2.5	5	10	90	0.0	1014.8	70	0.000	0.0
20100120 14:45	-0.7	-0.7	-0.7	88	-2.5	5	10	90	0.0	1014.7	79	0.000	0.0
20100120 14:50	-0.7	-0.7	-0.7	88	-2.4	3	8	90	0.0	1014.7	74	0.000	0.0
20100120 14:55	-0.7	-0.7	-0.7	87	-2.6	5	10	135	0.0	1014.8	67	0.000	0.0
20100120 15:00	-0.7	-2.9	-0.7	87	-2.6	6	11	112	0.0	1014.8	73	0.025	0.0
20100120 15:05	-0.7	-0.7	-0.7	87	-2.6	5	11	112	0.0	1014.8	59	0.000	0.0
20100120 15:10	-0.7	-0.7	-0.7	87	-2.6	3	8	112	0.0	1014.7	59	0.000	0.0
20100120 15:15	-0.7	-2.9	-0.7	87	-2.6	6	13	112	0.0	1014.8	69	0.000	0.0
20100120 15:20	-0.7	-3.6	-0.7	87	-2.6	8	14	112	0.0	1014.8	52	0.000	0.0
20100120 15:25	-0.8	-3.6	-0.8	86	-2.8	8	14	112	0.0	1014.8	64	0.000	0.0
20100120 15:30	-0.8	-0.8	-0.8	86	-2.8	5	11	112	0.0	1014.8	63	0.000	0.0
20100120 15:35	-0.7	-3.0	-0.7	87	-2.6	6	10	112	0.0	1014.8	57	0.000	0.0
20100120 15:40	-0.7	-0.7	-0.7	87	-2.6	3	6	135	0.0	1014.8	47	0.000	0.0
20100120 15:45	-0.7	-0.7	-0.7	87	-2.6	3	8	90	0.0	1014.8	46	0.000	0.0
20100120 15:50	-0.7	-0.7	-0.7	87	-2.6	3	8	90	0.0	1014.9	45	0.000	0.0
20100120 15:55	-0.7	-0.7	-0.7	87	-2.6	5	11	112	0.0	1014.9	40	0.000	0.0
20100120 16:00	-0.8	-3.1	-0.8	86	-2.8	6	11	135	0.0	1014.9	31	0.025	0.0
20100120 16:05	-0.8	-0.8	-0.8	86	-2.8	3	8	135	0.0	1014.9	28	0.000	0.0
20100120 16:10	-0.8	-0.8	-0.8	86	-2.9	3	6	135	0.0	1014.9	26	0.000	0.0
20100120 16:15	-0.8	-0.8	-0.8	87	-2.7	3	6	112	0.0	1014.9	25	0.000	0.0
20100120 16:20	-0.9	-0.9	-0.9	87	-2.8	3	6	112	0.0	1015.1	24	0.000	0.0
20100120 16:25	-0.9	-0.9	-0.9	87	-2.8	2	3	112	0.0	1015.1	36	0.000	0.0
20100120 16:30	-0.9	-0.9	-0.9	87	-2.8	2	5	112	0.0	1015.2	26	0.000	0.0
20100120 16:35	-0.8	-0.8	-0.8	87	-2.7	0	3	112	0.0	1015.2	11	0.000	0.0
20100120 16:40	-0.8	-0.8	-0.8	87	-2.7	0	2	112	0.0	1015.1	6	0.000	0.0
20100120 16:45	-0.8	-0.8	-0.8	88	-2.5	0	0	-100000	0.0	1015.0	0	0.000	0.0
20100120 16:50	-0.8	-0.8	-0.8	88	-2.5	2	5	112	0.0	1015.1	0	0.000	0.0
20100120 16:55	-0.8	-0.8	-0.8	87	-2.7	3	6	112	0.0	1015.1	0	0.000	0.0
20100120 17:00	-0.7	-0.7	-0.7	87	-2.6	3	6	112	0.0	1015.1	0	0.000	0.0
20100120 17:05	-0.7	-0.7	-0.7	87	-2.6	2	5	112	0.0	1015.1	0	0.000	0.0
20100120 17:10	-0.7	-0.7	-0.7	87	-2.6	0	3	112	0.0	1015.2	0	0.000	0.0
20100120 17:15	-0.7	-0.7	-0.7	87	-2.6	2	5	112	0.0	1015.2	0	0.000	0.0
20100120 17:20	-0.7	-0.7	-0.7	87	-2.6	2	5	112	0.0	1015.3	0	0.000	0.0
20100120 17:25	-0.7	-0.7	-0.7	87	-2.6	2	3	112	0.0	1015.3	0	0.000	0.0
20100120 17:30	-0.7	-0.7	-0.7	87	-2.6	3	8	112	0.0	1015.4	0	0.000	0.0
20100120 17:35	-0.7	-0.7	-0.7	87	-2.6	0	3	112	0.0	1015.4	0	0.000	0.0
20100120 17:40	-0.7	-0.7	-0.7	87	-2.6	2	5	112	0.0	1015.5	0	0.000	0.0
20100120 17:45	-0.7	-0.7	-0.7	87	-2.6	2	5	112	0.0	1015.4	0	0.000	0.0
20100120 17:50	-0.7	-0.7	-0.7	87	-2.6	2	5	112	0.0	1015.5	0	0.000	0.0
20100120 17:55	-0.6	-0.6	-0.6	87	-2.5	2	5	112	0.0	1015.5	0	0.000	0.0
20100120 18:00	-0.6	-0.6	-0.6	87	-2.4	2	3	112	0.0	1015.5	0	0.000	0.0
20100120 18:05	-0.6	-0.6	-0.6	87	-2.4	3	5	112	0.0	1015.6	0	0.000	0.0
20100120 18:10	-0.6	-0.6	-0.6	87	-2.5	0	3	112	0.0	1015.6	0	0.000	0.0
20100120 18:15	-0.7	-0.7	-0.7	87	-2.6	2	3	112	0.0	1015.6	0	0.000	0.0
20100120 18:20	-0.7	-0.7	-0.7	87	-2.6	2	5	112	0.0	1015.6	0	0.000	0.0
20100120 18:25	-0.7	-0.7	-0.7	87	-2.6	0	5	112	0.0	1015.6	0	0.000	0.0
20100120 18:30	-0.7	-0.7	-0.7	87	-2.6	0	3	112	0.0	1015.6	0	0.000	0.0
20100120 18:35	-0.7	-0.7	-0.7	87	-2.6	0	2	112	0.0	1015.6	0	0.000	0.0
20100120 18:40	-0.7	-0.7	-0.7	87	-2.6	0	3	112	0.0	1015.7	0	0.000	0.0
20100120 18:45	-0.7	-0.7	-0.7	87	-2.6	0	2	112	0.0	1015.8	0	0.000	0.0
20100120 18:50	-0.7	-0.7	-0.7	87	-2.6	0	2	112	0.0	1015.8	0	0.000	0.0
20100120 18:55	-0.6	-0.6	-0.6	87	-2.5	0	0	-100000	0.0	1015.9	0	0.000	0.0
20100120 19:00	-0.6	-0.6	-0.6	86	-2.7	0	0	-100000	0.0	1015.9	0	0.000	0.0
20100120 19:05	-0.7	-0.7	-0.7	86	-2.7	0	0	-100000	0.0	1015.9	0	0.000	0.0
20100120 19:10	-0.7	-0.7	-0.7	86	-2.8	0	0	-100000	0.0	1016.0	0	0.000	0.0
20100120 19:15	-0.7	-0.7	-0.7	87	-2.6	0	0	-100000	0.0	1016.0	0	0.000	0.0
20100120 19:20	-0.7	-0.7	-0.7	87	-2.6	0	0	-100000	0.0	1015.9	0	0.000	0.0
20100120 19:25	-0.7	-0.7	-0.7	86	-2.8	0	0	-100000	0.0	788.7	0	0.000	0.0
20100120 19:30	-0.7	-0.7	-0.7	87	-2.6	2	6	112	0.0	1016.0	0	0.000	0.0
20100120 19:35	-0.7	-0.7	-0.7	87	-2.6	3	5	112	0.0	1016.0	0	0.000	0.0
20100120 19:40	-0.7	-0.7	-0.7	87	-2.6	3	5	112	0.0	1016.0	0	0.000	0.0
20100120 19:45	-0.7	-0.7	-0.7	87	-2.6	3	6	112	0.0	1016.0	0	0.000	0.0
20100120 19:50	-0.8	-0.8	-0.8	87	-2.7	5	8	112	0.0	1016.0	0	0.000	0.0
20100120 19:55	-0.9	-0.9	-0.9	87	-2.8	5	8	112	0.0	1016.0	0	0.000	0.0
20100120 20:00	-1.0	-1.0	-1.0	87	-2.9	3	6	112	0.0	1016.1	0	0.000	0.0
20100120 20:05	-1.1	-1.1	-1.1	87	-2.9	3	6	112	0.0	1016.1	0	0.000	0.0
20100120 20:10	-1.1	-1.1	-1.1	87	-2.9	3	8	112	0.0	1016.1	0	0.000	0.0
20100120 20:15	-1.1	-1.1	-1.1	87	-3.0	5	8	112	0.0	1016.1	0	0.000	0.0
20100120 20:20	-1.1	-1.1	-1.1	87	-3.0	3	6	112	0.0	1016.2	0	0.000	0.0
20100120 20:25	-1.1	-1.1	-1.1	87	-3.0	3	8	112	0.0	1016.1	0	0.000	0.0
20100120 20:30	-1.2	-1.2	-1.2	87	-3.0	2	5	112	0.0	1016.2	0	0.000	0.0
20100120 20:35	-1.2	-1.2	-1.2	88	-2.9	2	5	112	0.0	1016.2	0	0.000	0.0
20100120 20:40	-1.2	-1.2	-1.2	87	-3.0	2	5	112	0.0	1016.3	0	0.000	0.0
20100120 20:45	-1.2	-1.2	-1.2	87	-3.0	3	6	112	0.0	1016.3	0	0.000	0.0
20100120 20:50	-1.2	-1.2	-1.2	88	-2.9	2	5	112	0.0	1016.2	0	0.000	0.0
20100120 20:55	-1.2	-1.2	-1.2	88	-2.9	2	6	112	0.0	1016.3	0	0.000	0.0
20100120 21:00	-1.2	-1.2	-1.2	88	-3.0	3	6	112	0.0	1016.4	0	0.000	0.0
20100120 21:05	-1.3	-1.3	-1.3	88	-3.0	2	5	90	0.0	1016.3	0	0.000	0.0
20100120 21:10	-1.3	-1.3	-1.3	88	-3.0	2	5	90	0.0	1016.3	0	0.000	0.0
20100120 21:15	-1.3	-1.3	-1.3	88	-3.0	0	3	90	0.0	1016.3	0	0.000	0.0
20100120 21:20	-1.3	-1.3	-1.3	88	-3.0	0	5	90	0.0	1016.4	0	0.000	0.0
20100120 21:25	-1.3	-1.3	-1.3	88	-3.0	2	5	90	0.0	1016.4	0	0.000	0.0
20100120 21:30	-1.3	-1.3	-1.3	88	-3.0	0	3	90	0.0	1016.5	0	0.000	0.0
20100120 21:35	-1.3	-1.3	-1.3	88	-3.0	2	6	90	0.0	1016.6	0	0.000	0.0
20100120 21:40	-1.2	-1.2	-1.2	88	-3.0	3	6	90	0.0	1016.6	0	0.000	0.0
20100120 21:45	-1.3	-1.3	-1.3	87	-3.2	3	5	90	0.0	1016.5	0	0.000	0.0
20100120 21:50	-1.3	-1.3	-1.3	88	-3.0	2	5	90	0.0	1016.6	0	0.000	0.0
20100120 21:55	-1.3	-1.3	-1.3	88	-3.0	2	3	90	0.0	1016.6	0	0.000	0.0
20100120 22:00	-1.3	-1.3	-1.3	88	-3.0	0	0	-100000	0.0	1016.6	0	0.000	0.0
20100120 22:05	-1.2	-1.2	-1.2	88	-3.0	0	5	90	0.0	1016.6	0	0.000	0.0
20100120 22:10	-1.2	-1.2	-1.2	88	-2.9	2	5	112	0.0	1016.7	0	0.000	0.0
20100120 22:15	-1.2	-1.2	-1.2	88	-2.9	3	8	158	0.0	1016.7	0	0.000	0.0
20100120 22:20	-1.2	-1.2	-1.2	87	-3.0	2	5	158	0.0	1016.8	0	0.000	0.0
20100120 22:25	-1.2	-1.2	-1.2	87	-3.0	2	5	158	0.0	1016.8	0	0.000	0.0
20100120 22:30	-1.2	-1.2	-1.2	88	-2.9	2	5	158	0.0	1016.8	0	0.000	0.0
20100120 22:35	-1.2	-1.2	-1.2	87	-3.0	3	8	158	0.0	1016.8	0	0.000	0.0
20100120 22:40	-1.2	-1.2	-1.2	87	-3.1	2	6	225	0.0	1016.8	0	0.000	0.0
20100120 22:45	-1.2	-1.2	-1.2	87	-3.1	0	3	225	0.0	1016.9	0	0.000	0.0
20100120 22:50	-1.2	-1.2	-1.2	88	-3.0	2	5	225	0.0	1016.9	0	0.000	0.0
20100120 22:55	-1.2	-1.2	-1.2	88	-3.0	0	5	225	0.0	1017.0	0	0.000	0.0
20100120 23:00	-1.2	-1.2	-1.2	88	-2.9	0	3	225	0.0	1017.0	0	0.000	0.0
20100120 23:05	-1.2	-1.2	-1.2	87	-3.0	3	6	225	0.0	1017.1	0	0.000	0.0
20100120 23:10	-1.2	-1.2	-1.2	87	-3.0	3	5	225	0.0	1017.1	0	0.000	0.0
20100120 23:15	-1.2	-1.2	-1.2	87	-3.0	2	3	225	0.0	1017.1	0	0.000	0.0
20100120 23:20	-1.2	-1.2	-1.2	87	-3.0	0	5	225	0.0	1017.1	0	0.000	0.0
20100120 23:25	-1.2	-1.2	-1.2	87	-3.0	2	6	225	0.0	1017.1	0	0.000	0.0
20100120 23:30	-1.2	-1.2	-1.2	87	-3.1	0	0	-100000	0.0	1017.2	0	0.000	0.0
20100120 23:35	-1.2	-1.2	-1.2	87	-3.1	0	2	225	0.0	1017.1	0	0.000	0.0
20100120 23:40	-1.2	-1.2	-1.2	87	-3.0	2	5	225	0.0	1017.2	0	0.000	0.0
20100120 23:45	-1.2	-1.2	-1.2	87	-3.0	2	5	225	0.0	1017.2	0	0.000	0.0
20100120 23:50	-1.2	-1.2	-1.2	87	-3.1	3	5	225	0.0	1017.2	0	0.000	0.0
20100120 23:55	-1.3	-1.3	-1.3	87	-3.2	3	5	225	0.0	1017.2	0	0.000	0.0



Please note the license to use and transfer of this data:
http://creativecommons.org/licenses/by-nc-sa/3.0/deed.en

Bitte beachten sie die Lizenz zur Verwertung und Weitergabe der Daten:
http://creativecommons.org/licenses/by-nc-sa/3.0/deed.de

zurück zur Übersicht der Archivdaten (Monats und Tagesdaten)

Cookies helfen bei der Bereitstellung von Inhalten. Durch die Nutzung dieser Seiten erklärst du dich damit einverstanden, dass Cookies auf deinem Rechner gespeichert werden. Weitere Information